Time;durP1;ratioP1;P1;durP2;ratioP2;P2;SDS_P1;SDS_P2;PMS_P1;PMS_P2;Temp;Humidity;BMP_temperature;BMP_pressure;BME280_temperature;BME280_humidity;BME280_pressure;Samples;Min_cycle;Max_cycle;Signal;HPM_P1;HPM_P2
2021/09/19 00:00:13;;;;;;;0.60;0.60;;;22.50;52.10;;;26.52;34.68;101684.91;5113591;28;20138;-11
2021/09/19 00:02:39;;;;;;;0.60;0.60;;;22.50;52.10;;;26.53;34.67;101685.75;5113686;28;20055;-11
2021/09/19 00:05:07;;;;;;;0.60;0.60;;;22.50;52.10;;;26.52;34.64;101684.03;5113607;28;20047;-11
2021/09/19 00:07:33;;;;;;;0.90;0.60;;;22.50;52.10;;;26.52;34.54;101684.91;5113331;28;20483;-11
2021/09/19 00:09:58;;;;;;;0.70;0.70;;;22.50;52.10;;;26.50;34.73;101676.13;5113560;28;20093;-11
2021/09/19 00:12:24;;;;;;;0.70;0.70;;;22.50;52.10;;;26.50;34.68;101673.44;5112935;28;20052;-11
2021/09/19 00:14:51;;;;;;;0.60;0.60;;;22.50;52.10;;;26.50;34.62;101672.59;5113803;28;20044;-11
2021/09/19 00:17:17;;;;;;;0.50;0.50;;;22.50;52.00;;;26.49;34.64;101663.66;5113156;28;20047;-11
2021/09/19 00:19:44;;;;;;;0.50;0.50;;;22.50;52.00;;;26.49;34.68;101668.19;5113211;28;20048;-11
2021/09/19 00:22:10;;;;;;;0.50;0.50;;;22.50;52.00;;;26.49;34.64;101660.97;5113388;28;20209;-11
2021/09/19 00:24:36;;;;;;;0.60;0.60;;;22.50;52.10;;;26.48;34.80;101664.66;5113439;28;20048;-11
2021/09/19 00:27:03;;;;;;;0.70;0.70;;;22.50;52.10;;;26.51;34.64;101667.06;5113165;28;20396;-11
2021/09/19 00:29:29;;;;;;;0.70;0.70;;;22.40;52.10;;;26.50;34.81;101669.91;5113566;28;20377;-11
2021/09/19 00:31:56;;;;;;;0.60;0.60;;;22.40;52.10;;;26.50;34.64;101669.91;5113413;28;20047;-11
2021/09/19 00:34:21;;;;;;;0.85;0.77;;;22.40;52.10;;;26.47;34.78;101664.75;5113521;28;20086;-11
2021/09/19 00:36:47;;;;;;;0.60;0.60;;;22.50;52.10;;;26.50;34.69;101672.59;5113562;28;20407;-11
2021/09/19 00:39:13;;;;;;;2.15;0.70;;;22.50;52.10;;;26.49;34.60;101658.28;5113433;28;20052;-11
2021/09/19 00:41:40;;;;;;;0.70;0.70;;;22.50;52.10;;;26.50;34.72;101670.75;5113142;28;20048;-11
2021/09/19 00:44:10;;;;;;;0.68;0.63;;;22.50;52.10;;;26.50;34.69;101669.91;5113406;28;20042;-11
2021/09/19 00:46:36;;;;;;;0.73;0.63;;;22.50;52.00;;;26.48;34.72;101664.66;5113065;28;20487;-11
2021/09/19 00:49:03;;;;;;;0.60;0.60;;;22.50;52.10;;;26.48;34.56;101667.31;5113021;28;20036;-11
2021/09/19 00:51:29;;;;;;;1.42;0.63;;;22.50;52.00;;;26.48;34.73;101669.13;5112878;28;20039;-11
2021/09/19 00:53:57;;;;;;;0.50;0.50;;;22.50;52.10;;;26.49;34.77;101670.84;5112887;28;20047;-11
2021/09/19 00:56:28;;;;;;;0.68;0.68;;;22.50;52.10;;;26.48;34.72;101659.28;5112935;28;20483;-11
2021/09/19 00:58:57;;;;;;;;;;;22.50;52.10;;;26.62;34.46;101664.47;5113419;28;20051;-11
2021/09/19 01:01:24;;;;;;;0.52;0.52;;;22.40;52.10;;;26.52;34.47;101652.72;5113333;28;20351;-11
2021/09/19 01:03:52;;;;;;;0.85;0.70;;;22.50;52.00;;;26.51;34.48;101658.19;5112792;28;20054;-11
2021/09/19 01:06:18;;;;;;;0.60;0.60;;;22.40;52.00;;;26.47;34.55;101662.06;5112836;28;20533;-11
2021/09/19 01:08:45;;;;;;;0.88;0.88;;;22.40;52.10;;;26.46;34.79;101649.63;5112421;28;20051;-11
2021/09/19 01:11:14;;;;;;;0.50;0.50;;;22.40;52.10;;;26.44;34.79;101655.94;5112675;28;20048;-11
2021/09/19 01:13:45;;;;;;;0.70;0.70;;;22.40;52.10;;;26.43;34.59;101664.97;5113048;28;20054;-11
2021/09/19 01:16:14;;;;;;;0.70;0.70;;;22.50;52.20;;;26.47;34.70;101662.91;5112632;28;20393;-11
2021/09/19 01:18:41;;;;;;;0.80;0.80;;;22.50;52.10;;;26.47;34.66;101667.44;5112445;28;20128;-11
2021/09/19 01:21:09;;;;;;;0.60;0.60;;;22.50;52.00;;;26.47;34.85;101670.13;5112308;28;20047;-11
2021/09/19 01:23:40;;;;;;;0.60;0.60;;;22.50;52.00;;;26.42;34.67;101663.25;5093710;28;20059;-11
2021/09/19 01:26:06;;;;;;;0.70;0.70;;;22.50;52.10;;;26.47;34.54;101673.66;5116433;28;20043;-11
2021/09/19 01:28:33;;;;;;;0.60;0.60;;;22.50;52.10;;;26.45;34.69;101672.91;5115780;28;20047;-11
2021/09/19 01:31:00;;;;;;;0.70;0.70;;;22.40;52.10;;;26.44;34.48;101671.19;5115697;28;20539;-11
2021/09/19 01:33:26;;;;;;;0.70;0.70;;;22.40;52.00;;;26.46;34.74;101671.94;5116307;28;20078;-11
2021/09/19 01:35:51;;;;;;;0.60;0.60;;;22.40;52.00;;;26.45;34.68;101672.91;5115795;28;20052;-12
2021/09/19 01:38:23;;;;;;;0.73;0.73;;;22.40;52.00;;;26.44;34.68;101679.22;5097928;28;20047;-11
2021/09/19 01:40:48;;;;;;;0.75;0.75;;;22.40;52.00;;;26.46;34.79;101671.94;5097305;28;20085;-11
2021/09/19 01:43:14;;;;;;;0.50;0.50;;;22.40;52.10;;;26.42;34.69;101663.25;5115717;28;20043;-11
2021/09/19 01:45:40;;;;;;;0.70;0.70;;;22.40;52.10;;;26.43;34.64;101664.13;5115908;28;20048;-11
2021/09/19 01:48:07;;;;;;;0.77;0.77;;;22.40;52.10;;;26.43;34.81;101670.34;5116111;28;20360;-11
2021/09/19 01:50:33;;;;;;;1.23;0.88;;;22.40;52.10;;;26.44;34.65;101669.34;5115658;28;20043;-11
2021/09/19 01:53:02;;;;;;;0.60;0.60;;;22.40;52.10;;;26.43;34.69;101673.03;5115648;28;20047;-11
2021/09/19 01:55:28;;;;;;;0.65;0.65;;;22.40;52.10;;;26.44;34.76;101674.72;5115651;28;20130;-11
2021/09/19 01:57:54;;;;;;;0.80;0.80;;;22.40;52.10;;;26.44;34.67;101674.72;5115904;28;20479;-11
2021/09/19 02:00:23;;;;;;;0.82;0.82;;;22.40;52.10;;;26.43;34.76;101664.97;5115903;28;20055;-11
2021/09/19 02:02:49;;;;;;;0.50;0.50;;;22.40;52.10;;;26.46;34.84;101676.44;5115547;28;20051;-11
2021/09/19 02:05:14;;;;;;;0.70;0.70;;;22.40;52.10;;;26.42;34.63;101671.28;5115699;28;20040;-11
2021/09/19 02:07:41;;;;;;;0.70;0.70;;;22.40;52.10;;;26.44;34.69;101669.34;5097497;28;20097;-11
2021/09/19 02:10:11;;;;;;;0.50;0.50;;;22.40;52.10;;;26.41;34.77;101661.56;5115389;28;20484;-11
2021/09/19 02:12:39;;;;;;;0.60;0.60;;;22.40;52.10;;;26.47;34.69;101659.41;5115484;28;20086;-11
2021/09/19 02:15:08;;;;;;;0.70;0.70;;;22.40;52.10;;;26.42;34.66;101657.88;5115601;28;20051;-11
2021/09/19 02:17:34;;;;;;;0.98;0.90;;;22.40;52.10;;;26.44;34.68;101658.63;5115063;28;20047;-11
2021/09/19 02:20:00;;;;;;;0.77;0.77;;;22.40;52.10;;;26.42;34.71;101649.00;5115063;28;20136;-11
2021/09/19 02:22:26;;;;;;;1.05;0.68;;;22.40;52.10;;;26.43;34.80;101654.25;5115302;28;20086;-11
2021/09/19 02:24:52;;;;;;;0.70;0.70;;;22.40;52.10;;;26.43;34.68;101656.09;5115099;28;20047;-11
2021/09/19 02:27:20;;;;;;;0.77;0.77;;;22.40;52.10;;;26.43;34.88;101658.75;5115084;28;20040;-11
2021/09/19 02:29:48;;;;;;;0.75;0.75;;;22.40;52.10;;;26.41;34.60;101652.63;5115110;28;20547;-11
2021/09/19 02:32:15;;;;;;;0.80;0.80;;;22.40;52.10;;;26.41;34.89;101647.28;5097112;28;20074;-11
2021/09/19 02:34:40;;;;;;;0.63;0.63;;;22.40;52.10;;;26.40;34.65;101646.44;5114701;28;20058;-11
2021/09/19 02:37:06;;;;;;;0.90;0.60;;;22.40;52.10;;;26.39;34.82;101644.69;5115317;28;20452;-11
2021/09/19 02:39:32;;;;;;;0.80;0.80;;;22.40;52.10;;;26.42;34.57;101654.34;5114995;28;20381;-11
2021/09/19 02:41:58;;;;;;;0.70;0.70;;;22.40;52.10;;;26.39;34.80;101647.38;5114929;28;20040;-11
2021/09/19 02:44:24;;;;;;;0.55;0.55;;;22.40;52.10;;;26.41;34.76;101653.50;5114739;28;20054;-11
2021/09/19 02:46:50;;;;;;;1.00;0.90;;;22.40;52.00;;;26.42;34.80;101649.84;5114916;28;20074;-11
2021/09/19 02:49:16;;;;;;;0.60;0.60;;;22.40;52.10;;;26.41;34.69;101644.59;5115451;28;20047;-11
2021/09/19 02:51:42;;;;;;;0.68;0.60;;;22.40;52.10;;;26.42;34.58;101652.53;5114671;28;20096;-11
2021/09/19 02:54:08;;;;;;;0.90;0.90;;;22.40;52.10;;;26.41;34.60;101658.88;5114790;28;20483;-11
2021/09/19 02:56:34;;;;;;;0.65;0.65;;;22.40;52.10;;;26.40;34.76;101659.84;5114745;28;20055;-11
2021/09/19 02:59:00;;;;;;;0.55;0.50;;;22.40;52.10;;;26.39;34.73;101658.09;5114575;28;20073;-11
2021/09/19 03:01:28;;;;;;;0.80;0.80;;;22.40;52.10;;;26.42;34.88;101662.41;5096680;28;20047;-11
2021/09/19 03:03:54;;;;;;;0.60;0.60;;;22.40;52.10;;;26.40;34.77;101651.78;5114898;28;20045;-11
2021/09/19 03:06:21;;;;;;;0.70;0.70;;;22.40;52.00;;;26.41;34.66;101652.63;5114846;28;20051;-11
2021/09/19 03:08:48;;;;;;;0.90;0.80;;;22.40;52.00;;;26.40;34.65;101648.25;5114870;28;20055;-11
2021/09/19 03:11:14;;;;;;;0.80;0.80;;;22.40;52.00;;;26.40;34.89;101651.78;5114191;28;20050;-11
2021/09/19 03:13:40;;;;;;;0.70;0.70;;;22.40;52.00;;;26.39;34.70;101643.84;5114555;28;20052;-11
2021/09/19 03:16:06;;;;;;;0.80;0.80;;;22.40;52.00;;;26.40;34.69;101651.78;5114519;28;20050;-11
2021/09/19 03:18:32;;;;;;;0.60;0.60;;;22.40;52.00;;;26.39;34.72;101641.16;5114179;28;20399;-11
2021/09/19 03:20:58;;;;;;;0.70;0.70;;;22.40;52.00;;;26.41;34.62;101644.59;5114196;28;20055;-11
2021/09/19 03:23:23;;;;;;;1.08;0.98;;;22.40;52.00;;;26.39;34.71;101652.75;5114391;28;20054;-11
2021/09/19 03:25:49;;;;;;;1.05;0.88;;;22.40;52.00;;;26.37;34.58;101652.00;5114246;28;20081;-11
2021/09/19 03:28:15;;;;;;;0.70;0.70;;;22.40;52.00;;;26.39;34.67;101655.44;5113980;28;20071;-11
2021/09/19 03:30:41;;;;;;;0.70;0.70;;;22.40;52.00;;;26.39;34.59;101650.06;5114183;28;20047;-11
2021/09/19 03:33:07;;;;;;;0.60;0.60;;;22.40;52.00;;;26.38;34.68;101647.50;5114355;28;20097;-11
2021/09/19 03:35:33;;;;;;;0.70;0.70;;;22.40;52.00;;;26.40;34.71;101653.63;5114348;28;20862;-11
2021/09/19 03:37:58;;;;;;;0.70;0.70;;;22.40;52.10;;;26.40;34.47;101650.94;5113905;28;20073;-11
2021/09/19 03:40:24;;;;;;;0.73;0.73;;;22.40;52.10;;;26.40;34.82;101651.78;5114527;28;20391;-11
2021/09/19 03:42:51;;;;;;;0.68;0.68;;;22.30;52.10;;;26.41;34.64;101650.84;5113933;28;20039;-11
2021/09/19 03:45:18;;;;;;;0.65;0.65;;;22.30;52.10;;;26.37;34.67;101648.47;5095903;28;20476;-11
2021/09/19 03:47:44;;;;;;;0.60;0.60;;;22.40;52.00;;;26.38;34.69;101650.16;5113319;28;20475;-11
2021/09/19 03:50:10;;;;;;;0.70;0.70;;;22.40;52.00;;;26.40;34.79;101656.31;5110102;28;20081;-11
2021/09/19 03:52:36;;;;;;;0.70;0.70;;;22.40;52.00;;;26.39;34.77;101649.22;5113705;28;20487;-11
2021/09/19 03:55:03;;;;;;;0.80;0.73;;;22.30;52.00;;;26.36;34.49;101649.44;5095627;28;20048;-11
2021/09/19 03:57:29;;;;;;;0.80;0.80;;;22.30;52.00;;;26.39;34.50;101654.56;5113693;28;20395;-11
2021/09/19 03:59:55;;;;;;;0.98;0.80;;;22.30;52.00;;;26.36;34.66;101649.44;5113985;28;20047;-11
2021/09/19 04:02:20;;;;;;;0.65;0.65;;;22.40;52.10;;;26.39;34.65;101660.78;5112299;28;20606;-11
2021/09/19 04:04:46;;;;;;;0.68;0.68;;;22.30;52.00;;;26.39;34.68;101660.78;5113583;28;20488;-11
2021/09/19 04:07:12;;;;;;;0.70;0.70;;;22.40;52.00;;;26.37;34.68;101657.38;5113507;28;20055;-11
2021/09/19 04:09:38;;;;;;;0.60;0.60;;;22.30;52.00;;;26.39;34.54;101659.94;5113924;28;20047;-11
2021/09/19 04:12:03;;;;;;;0.70;0.70;;;22.30;52.00;;;26.37;34.75;101654.69;5113338;28;20138;-11
2021/09/19 04:14:29;;;;;;;0.98;0.60;;;22.40;52.00;;;26.37;34.57;101657.38;5113531;28;20039;-11
2021/09/19 04:16:55;;;;;;;0.70;0.70;;;22.30;52.00;;;26.36;34.75;101658.34;5113989;28;20047;-11
2021/09/19 04:19:21;;;;;;;0.70;0.70;;;22.40;52.00;;;26.39;34.66;101659.94;5113735;28;20043;-11
2021/09/19 04:21:47;;;;;;;0.60;0.60;;;22.40;52.00;;;26.37;34.55;101661.88;5113462;28;20097;-11
2021/09/19 04:24:13;;;;;;;0.60;0.60;;;22.30;51.90;;;26.36;34.78;101658.34;5113664;28;20071;-11
2021/09/19 04:26:38;;;;;;;0.70;0.70;;;22.30;52.00;;;26.38;34.73;101660.91;5113623;28;20055;-11
2021/09/19 04:29:04;;;;;;;0.60;0.60;;;22.30;52.00;;;26.39;34.81;101673.34;5113079;28;20544;-11
2021/09/19 04:31:31;;;;;;;1.02;0.70;;;22.30;52.00;;;26.37;34.81;101667.25;5095481;28;20051;-11
2021/09/19 04:33:58;;;;;;;0.70;0.63;;;22.40;52.00;;;26.37;34.83;101668.09;5113535;28;20048;-11
2021/09/19 04:36:24;;;;;;;0.70;0.70;;;22.30;52.00;;;26.37;34.46;101668.09;5113454;28;20047;-11
2021/09/19 04:38:51;;;;;;;0.70;0.70;;;22.30;52.00;;;26.37;34.58;101668.09;5113180;28;20047;-11
2021/09/19 04:41:17;;;;;;;0.80;0.80;;;22.30;52.00;;;26.37;34.54;101664.56;5113429;28;20046;-11
2021/09/19 04:43:43;;;;;;;0.80;0.80;;;22.30;52.00;;;26.35;34.82;101661.16;5113233;28;20047;-11
2021/09/19 04:46:09;;;;;;;0.63;0.63;;;22.30;52.00;;;26.37;34.58;101665.41;5113213;28;20048;-11
2021/09/19 04:48:34;;;;;;;0.60;0.60;;;22.30;52.60;;;26.35;34.59;101664.66;5112795;28;20388;-11
2021/09/19 04:51:00;;;;;;;0.80;0.80;;;22.30;52.00;;;26.35;34.64;101667.34;5113166;28;20101;-11
2021/09/19 04:53:26;;;;;;;0.70;0.70;;;22.30;52.00;;;26.35;34.64;101662.00;5112756;28;20062;-11
2021/09/19 04:55:51;;;;;;;0.80;0.80;;;22.30;52.00;;;26.36;34.93;101666.41;5113087;28;20046;-11
2021/09/19 04:58:17;;;;;;;0.70;0.70;;;22.30;52.00;;;26.35;34.69;101661.16;5112656;28;20056;-11
2021/09/19 05:00:43;;;;;;;0.95;0.75;;;22.30;52.10;;;26.36;34.59;101660.16;5116467;28;20051;-11
2021/09/19 05:03:09;;;;;;;0.70;0.70;;;22.30;52.10;;;26.36;34.71;101660.16;5116516;28;20134;-11
2021/09/19 05:05:35;;;;;;;2.17;0.90;;;22.30;52.00;;;26.35;34.74;101662.00;5116757;28;20051;-11
2021/09/19 05:08:00;;;;;;;0.75;0.75;;;22.30;52.00;;;26.34;34.61;101656.75;5116675;28;20054;-11
2021/09/19 05:10:26;;;;;;;0.70;0.70;;;22.30;52.00;;;26.35;34.53;101663.81;5116770;28;20117;-11
2021/09/19 05:12:52;;;;;;;0.50;0.50;;;22.40;52.00;;;26.36;34.66;101654.78;5116193;28;20071;-11
2021/09/19 05:15:17;;;;;;;0.70;0.70;;;22.40;52.00;;;26.35;34.74;101662.00;5116319;28;20048;-11
2021/09/19 05:17:43;;;;;;;0.75;0.75;;;22.30;51.90;;;26.36;34.51;101660.16;5116162;28;20058;-11
2021/09/19 05:20:10;;;;;;;0.68;0.68;;;22.30;51.90;;;26.33;34.66;101653.22;5116072;28;20101;-11
2021/09/19 05:22:35;;;;;;;0.60;0.60;;;22.30;51.90;;;26.35;34.65;101659.31;5116240;28;20082;-11
2021/09/19 05:25:02;;;;;;;1.75;1.00;;;22.30;51.90;;;26.35;34.75;101661.16;5116405;28;20077;-11
2021/09/19 05:27:27;;;;;;;0.93;0.85;;;22.40;51.90;;;26.34;34.68;101665.63;5116390;28;20051;-12
2021/09/19 05:29:53;;;;;;;0.77;0.77;;;22.40;51.90;;;26.33;34.70;101666.63;5116379;28;20036;-11
2021/09/19 05:32:19;;;;;;;0.70;0.70;;;22.30;51.90;;;26.35;34.66;101670.03;5116008;28;20044;-11
2021/09/19 05:34:44;;;;;;;0.68;0.68;;;22.30;51.90;;;26.37;34.76;101667.25;5116123;28;20052;-11
2021/09/19 05:37:10;;;;;;;0.70;0.70;;;22.30;51.90;;;26.35;34.75;101666.50;5116030;28;20055;-11
2021/09/19 05:39:36;;;;;;;0.70;0.70;;;22.30;51.90;;;26.35;34.54;101666.50;5116389;28;20161;-11
2021/09/19 05:42:02;;;;;;;0.80;0.80;;;22.30;51.90;;;26.35;34.66;101670.03;5116220;28;20133;-11
2021/09/19 05:44:28;;;;;;;0.80;0.80;;;22.30;51.90;;;26.36;34.71;101665.53;5115960;28;20122;-11
2021/09/19 05:46:53;;;;;;;0.80;0.80;;;22.40;51.90;;;26.37;34.76;101660.06;5115993;28;20496;-11
2021/09/19 05:49:19;;;;;;;0.70;0.70;;;22.30;51.80;;;26.34;34.67;101662.94;5115616;28;20052;-11
2021/09/19 05:51:45;;;;;;;0.80;0.80;;;22.30;51.90;;;26.35;34.58;101656.63;5116082;28;20056;-11
2021/09/19 05:54:11;;;;;;;1.40;0.63;;;22.40;51.90;;;26.37;34.59;101662.72;5115699;28;20077;-11
2021/09/19 05:56:36;;;;;;;0.70;0.70;;;22.40;51.90;;;26.37;34.63;101653.84;5116255;28;20097;-11
2021/09/19 05:59:03;;;;;;;0.63;0.63;;;22.40;51.90;;;26.37;34.53;101660.06;5115694;28;20131;-11
2021/09/19 06:01:30;;;;;;;0.70;0.70;;;22.40;51.90;;;26.36;34.63;101663.72;5116045;28;20516;-11
2021/09/19 06:03:57;;;;;;;0.73;0.60;;;22.40;51.80;;;26.35;34.63;101662.00;5115882;28;20048;-11
2021/09/19 06:06:24;;;;;;;0.70;0.70;;;22.40;51.80;;;26.35;34.59;101656.63;5115826;28;20043;-11
2021/09/19 06:08:51;;;;;;;1.88;0.70;;;22.40;51.80;;;26.37;34.51;101660.06;5115250;28;20043;-11
2021/09/19 06:11:17;;;;;;;0.80;0.80;;;22.40;51.70;;;26.37;34.64;101662.72;5114923;28;20052;-11
2021/09/19 06:13:43;;;;;;;0.70;0.70;;;22.40;51.70;;;26.38;34.57;101667.13;5115353;28;20092;-11
2021/09/19 06:16:09;;;;;;;0.85;0.73;;;22.40;51.80;;;26.36;34.63;101663.72;5115184;28;20051;-11
2021/09/19 06:18:35;;;;;;;0.70;0.70;;;22.30;51.80;;;26.37;34.65;101675.28;5115131;28;20101;-11
2021/09/19 06:21:03;;;;;;;0.90;0.90;;;22.30;51.80;;;26.35;34.55;101670.03;5115065;28;20507;-11
2021/09/19 06:23:30;;;;;;;0.82;0.82;;;22.30;51.80;;;26.37;34.67;101673.47;5115117;28;20056;-11
2021/09/19 06:25:56;;;;;;;0.70;0.70;;;22.40;51.80;;;26.36;34.44;101678.94;5114941;28;20058;-11
2021/09/19 06:28:22;;;;;;;0.80;0.80;;;22.40;51.70;;;26.39;34.72;101681.38;5114907;28;20055;-12
2021/09/19 06:30:48;;;;;;;0.80;0.80;;;22.40;51.70;;;26.39;34.47;101681.38;5115088;28;20048;-11
2021/09/19 06:33:14;;;;;;;0.80;0.80;;;22.40;51.70;;;26.38;34.35;101676.97;5115105;28;20047;-11
2021/09/19 06:35:41;;;;;;;0.88;0.88;;;22.40;51.70;;;26.40;34.69;101675.06;5115429;28;20053;-11
2021/09/19 06:38:07;;;;;;;0.77;0.77;;;22.40;51.60;;;26.36;34.53;101670.88;5115602;28;20502;-11
2021/09/19 06:40:33;;;;;;;0.80;0.80;;;22.40;51.60;;;26.38;34.58;101669.81;5114931;28;20048;-11
2021/09/19 06:42:59;;;;;;;0.80;0.80;;;22.40;51.60;;;26.39;34.57;101674.19;5114963;28;20535;-11
2021/09/19 06:45:25;;;;;;;0.88;0.88;;;22.40;51.60;;;26.40;34.48;101675.91;5114925;28;20040;-11
2021/09/19 06:47:50;;;;;;;0.95;0.77;;;22.40;51.60;;;26.40;34.46;101675.06;5114877;28;20070;-12
2021/09/19 06:50:16;;;;;;;1.00;0.90;;;22.40;51.60;;;26.39;34.50;101674.19;5114818;28;20043;-11
2021/09/19 06:52:42;;;;;;;0.60;0.57;;;22.40;51.60;;;26.39;34.53;101681.38;5114742;28;20046;-11
2021/09/19 06:55:09;;;;;;;0.90;0.90;;;22.40;51.60;;;26.40;34.36;101675.06;5114748;28;20147;-11
2021/09/19 06:57:34;;;;;;;0.63;0.63;;;22.40;51.60;;;26.39;34.49;101668.84;5114796;28;20047;-11
2021/09/19 07:00:01;;;;;;;0.90;0.90;;;22.40;51.50;;;26.40;34.38;101672.41;5114794;28;20048;-11
2021/09/19 07:02:26;;;;;;;0.75;0.75;;;22.40;51.50;;;26.38;34.52;101667.13;5114700;28;20047;-11
2021/09/19 07:04:52;;;;;;;0.60;0.60;;;22.40;51.50;;;26.40;34.35;101669.72;5114885;28;20121;-11
2021/09/19 07:07:18;;;;;;;0.65;0.65;;;22.40;51.50;;;26.40;34.31;101675.91;5113282;28;20048;-11
2021/09/19 07:09:44;;;;;;;0.80;0.80;;;22.40;51.50;;;26.42;34.40;101679.34;5114457;28;20058;-11
2021/09/19 07:12:10;;;;;;;0.80;0.80;;;22.40;51.40;;;26.40;34.48;101677.75;5114420;28;20044;-11
2021/09/19 07:14:36;;;;;;;0.70;0.70;;;22.50;51.40;;;26.43;34.37;101677.53;5114779;28;20445;-11
2021/09/19 07:17:02;;;;;;;0.73;0.73;;;22.50;51.40;;;26.41;34.47;101672.28;5114452;28;20048;-11
2021/09/19 07:19:28;;;;;;;0.70;0.70;;;22.50;51.30;;;26.41;34.55;101679.44;5114176;28;20465;-11
2021/09/19 07:21:54;;;;;;;1.25;0.90;;;22.50;51.30;;;26.43;34.50;101678.38;5113210;28;20055;-11
2021/09/19 07:24:20;;;;;;;0.60;0.60;;;22.50;51.20;;;26.42;34.47;101668.63;5114180;28;20083;-11
2021/09/19 07:26:45;;;;;;;0.82;0.82;;;22.50;51.20;;;26.45;34.46;101670.22;5114874;28;20055;-11
2021/09/19 07:29:11;;;;;;;0.70;0.70;;;22.50;51.20;;;26.43;34.27;101661.44;5114099;28;20068;-11
2021/09/19 07:31:38;;;;;;;0.68;0.68;;;22.50;51.10;;;26.46;34.34;101665.72;5114121;28;20044;-11
2021/09/19 07:34:04;;;;;;;0.70;0.70;;;22.50;51.10;;;26.44;34.40;101657.78;5114341;28;20040;-11
2021/09/19 07:36:34;;;;;;;0.60;0.60;;;22.50;51.00;;;26.47;34.34;101665.59;5114192;28;20058;-11
2021/09/19 07:39:05;;;;;;;0.70;0.70;;;22.60;50.90;;;26.49;34.47;101666.34;5113857;28;20039;-11
2021/09/19 07:41:32;;;;;;;0.90;0.80;;;22.60;50.80;;;26.50;34.21;101665.38;5114040;28;20051;-11
2021/09/19 07:43:59;;;;;;;0.80;0.80;;;22.60;50.80;;;26.50;34.28;101661.84;5114548;28;20050;-11
2021/09/19 07:46:26;;;;;;;0.70;0.70;;;22.60;50.80;;;26.51;34.35;101666.22;5114236;28;20051;-11
2021/09/19 07:48:53;;;;;;;1.00;0.82;;;22.60;50.80;;;26.51;34.13;101676.97;5114297;28;20052;-11
2021/09/19 07:51:20;;;;;;;0.80;0.80;;;22.60;50.80;;;26.54;34.37;101679.44;5113942;28;20130;-11
2021/09/19 07:53:46;;;;;;;1.40;0.90;;;22.70;50.70;;;26.53;34.14;101677.69;5113701;28;20525;-11
2021/09/19 07:56:13;;;;;;;0.80;0.80;;;22.70;50.70;;;26.55;34.22;101682.00;5113941;28;20070;-11
2021/09/19 07:58:39;;;;;;;0.75;0.75;;;22.70;50.70;;;26.55;34.23;101682.00;5113606;28;20054;-11
2021/09/19 08:01:05;;;;;;;0.80;0.80;;;22.70;50.70;;;26.56;34.14;101690.88;5113579;28;20052;-11
2021/09/19 08:03:30;;;;;;;1.05;0.95;;;22.70;50.70;;;26.56;34.02;101688.22;5113801;28;20471;-12
2021/09/19 08:05:56;;;;;;;0.73;0.70;;;22.70;50.60;;;26.57;34.35;101695.28;5113497;28;20044;-11
2021/09/19 08:08:22;;;;;;;0.85;0.85;;;22.70;50.60;;;26.58;34.18;101691.63;5113539;28;20139;-11
2021/09/19 08:10:48;;;;;;;0.70;0.70;;;22.70;50.60;;;26.59;34.03;101698.72;5113532;28;20498;-11
2021/09/19 08:13:13;;;;;;;1.05;1.00;;;22.80;50.50;;;26.59;34.06;101698.72;5113491;28;20043;-11
2021/09/19 08:15:40;;;;;;;0.60;0.60;;;22.70;50.50;;;26.59;34.19;101704.09;5113523;28;20051;-11
2021/09/19 08:18:06;;;;;;;0.80;0.80;;;22.80;50.60;;;26.58;34.19;101695.19;5113528;28;20437;-11
2021/09/19 08:20:32;;;;;;;0.70;0.70;;;22.80;50.50;;;26.58;34.21;101699.66;5113300;28;20130;-11
2021/09/19 08:22:58;;;;;;;0.63;0.63;;;22.80;50.60;;;26.60;34.19;101701.28;5113512;28;20047;-11
2021/09/19 08:25:25;;;;;;;0.93;0.93;;;22.70;50.50;;;26.63;34.05;101702.94;5113236;28;20122;-11
2021/09/19 08:27:52;;;;;;;1.13;1.02;;;22.70;50.50;;;26.62;34.19;101702.03;5113667;28;20558;-11
2021/09/19 08:30:18;;;;;;;0.85;0.63;;;22.80;50.50;;;26.61;34.17;101694.97;5113142;28;20047;-11
2021/09/19 08:32:45;;;;;;;0.70;0.70;;;22.70;50.40;;;26.65;34.11;101700.13;5112797;28;20039;-11
2021/09/19 08:35:13;;;;;;;1.17;0.70;;;22.80;50.50;;;26.61;33.91;101688.72;5113229;28;20503;-11
2021/09/19 08:37:40;;;;;;;1.00;0.90;;;22.80;50.40;;;26.62;34.26;101693.97;5113215;28;20044;-11
2021/09/19 08:40:09;;;;;;;1.40;0.82;;;22.80;50.30;;;26.64;33.94;101693.91;5112931;28;20056;-11
2021/09/19 08:42:37;;;;;;;0.85;0.85;;;22.80;50.40;;;26.66;34.14;101705.38;5113623;28;20051;-11
2021/09/19 08:45:05;;;;;;;1.00;0.90;;;22.80;50.30;;;26.67;34.18;101704.41;5113047;28;20047;-11
2021/09/19 08:47:31;;;;;;;0.77;0.77;;;22.90;50.30;;;26.68;34.11;101713.31;5113120;28;20043;-12
2021/09/19 08:49:59;;;;;;;0.70;0.70;;;22.90;50.30;;;26.67;33.91;101708.94;5112874;28;20152;-11
2021/09/19 08:52:25;;;;;;;0.60;0.60;;;22.90;50.30;;;26.70;34.01;101701.50;5112884;28;20476;-11
2021/09/19 08:54:51;;;;;;;0.70;0.70;;;22.90;50.20;;;26.72;34.05;101701.41;5112929;28;20058;-11
2021/09/19 08:57:17;;;;;;;0.95;0.90;;;22.90;50.20;;;26.70;33.90;101698.81;5112810;28;20047;-11
2021/09/19 08:59:51;;;;;;;0.90;0.88;;;22.90;50.20;;;26.72;34.13;101696.88;5112883;28;20044;-11
2021/09/19 09:02:18;;;;;;;0.70;0.70;;;22.90;50.20;;;26.73;34.08;101703.97;5113473;28;20051;-11
2021/09/19 09:04:45;;;;;;;0.70;0.70;;;22.90;50.20;;;26.75;33.97;101695.81;5112699;28;20506;-11
2021/09/19 09:07:13;;;;;;;0.70;0.70;;;22.90;50.10;;;26.76;33.82;101692.13;5113147;28;20529;-11
2021/09/19 09:09:56;;;;;;;1.10;1.00;;;23.00;50.10;;;26.79;33.80;101708.03;5113089;28;20052;-11
2021/09/19 09:12:23;;;;;;;0.77;0.77;;;23.00;50.10;;;26.80;33.83;101702.53;5112791;28;20048;-11
2021/09/19 09:14:53;;;;;;;0.75;0.75;;;23.00;50.00;;;26.79;33.74;101702.66;5113028;28;20044;-11
2021/09/19 09:17:26;;;;;;;0.80;0.80;;;23.00;49.90;;;26.81;33.73;101700.72;5112541;28;20097;-11
2021/09/19 09:19:59;;;;;;;1.00;1.00;;;23.00;49.90;;;26.82;33.86;101699.75;5112764;28;20139;-11
2021/09/19 09:22:32;;;;;;;0.90;0.90;;;23.00;49.90;;;26.83;33.79;101701.47;5112962;28;20051;-11
2021/09/19 09:25:12;;;;;;;0.73;0.73;;;23.00;49.80;;;26.85;33.82;101699.53;5112627;28;20071;-11
2021/09/19 09:27:47;;;;;;;0.90;0.80;;;23.10;49.80;;;26.85;33.67;101699.53;5112590;28;20126;-11
2021/09/19 09:30:14;;;;;;;0.80;0.80;;;23.10;49.70;;;26.87;33.60;101705.63;5112543;28;20048;-11
2021/09/19 09:32:59;;;;;;;0.90;0.90;;;23.10;49.80;;;26.87;33.85;101699.41;5112875;28;20052;-11
2021/09/19 09:35:35;;;;;;;1.20;0.77;;;23.10;49.70;;;26.89;33.85;101706.38;5112474;28;20054;-12
2021/09/19 09:38:20;;;;;;;0.90;0.85;;;23.10;49.70;;;26.87;33.71;101696.72;5112348;28;20472;-11
2021/09/19 09:40:47;;;;;;;0.80;0.80;;;23.10;49.60;;;26.92;33.69;101695.41;5112779;28;20165;-11
2021/09/19 09:43:16;;;;;;;0.88;0.88;;;23.10;49.60;;;26.91;33.56;101695.53;5112368;28;20067;-11
2021/09/19 09:45:44;;;;;;;1.05;1.05;;;23.10;49.60;;;26.91;33.73;101706.25;5114339;28;20039;-11
2021/09/19 09:48:30;;;;;;;0.93;0.90;;;23.10;49.50;;;26.93;33.67;101699.81;5115692;28;20043;-11
2021/09/19 09:50:58;;;;;;;0.70;0.70;;;23.20;49.60;;;26.92;33.45;101698.09;5115824;28;20122;-11
2021/09/19 09:53:25;;;;;;;0.90;0.90;;;23.20;49.60;;;26.94;33.58;101701.50;5115524;28;20143;-11
2021/09/19 09:55:54;;;;;;;0.95;0.80;;;23.20;49.50;;;26.94;33.39;101693.47;5115803;28;20135;-11
2021/09/19 09:58:21;;;;;;;0.80;0.80;;;23.20;49.50;;;26.96;33.38;101701.41;5115746;28;20081;-11
2021/09/19 10:00:54;;;;;;;0.90;0.90;;;23.20;49.40;;;26.96;33.64;101698.72;5115959;28;20043;-11
2021/09/19 10:03:21;;;;;;;0.68;0.68;;;23.20;49.40;;;26.98;33.40;101697.66;5115575;28;20055;-11
2021/09/19 10:05:47;;;;;;;0.75;0.70;;;23.20;49.40;;;26.95;33.31;101692.50;5115895;28;20075;-11
2021/09/19 10:08:13;;;;;;;0.90;0.90;;;23.20;49.40;;;26.97;33.33;101692.38;5095853;28;20487;-11
2021/09/19 10:10:43;;;;;;;0.70;0.70;;;23.20;49.40;;;26.95;33.55;101689.81;5115465;28;20046;-11